Time;durP1;ratioP1;P1;durP2;ratioP2;P2;SDS_P1;SDS_P2;PMS_P1;PMS_P2;Temp;Humidity;BMP_temperature;BMP_pressure;BME280_temperature;BME280_humidity;BME280_pressure;Samples;Min_cycle;Max_cycle;Signal;HPM_P1;HPM_P2
2023/10/31 00:00:13;;;;;;;5.22;2.72;;;;;;;;;;5052402;28;20070;-78
2023/10/31 00:02:38;;;;;;;7.25;4.00;;;;;;;;;;5052607;28;20025;-78
2023/10/31 00:05:04;;;;;;;5.38;3.35;;;;;;;;;;5051167;28;20739;-79
2023/10/31 00:07:29;;;;;;;10.55;4.00;;;;;;;;;;5050329;28;20044;-78
2023/10/31 00:09:55;;;;;;;8.80;4.05;;;;;;;;;;5034323;28;20041;-76
2023/10/31 00:12:20;;;;;;;7.18;4.05;;;;;;;;;;5052129;28;20079;-78
2023/10/31 00:14:45;;;;;;;8.93;4.60;;;;;;;;;;5051797;28;20037;-76
2023/10/31 00:17:10;;;;;;;8.13;4.10;;;;;;;;;;5050147;28;20025;-77
2023/10/31 00:19:36;;;;;;;6.72;3.70;;;;;;;;;;5033859;28;20472;-78
2023/10/31 00:22:01;;;;;;;8.25;3.53;;;;;;;;;;5051288;28;20017;-77
2023/10/31 00:24:26;;;;;;;5.63;3.40;;;;;;;;;;5033934;28;20489;-78
2023/10/31 00:26:51;;;;;;;4.25;2.20;;;;;;;;;;5050935;28;20359;-77
2023/10/31 00:29:17;;;;;;;4.78;2.38;;;;;;;;;;5050524;28;20021;-78
2023/10/31 00:31:42;;;;;;;7.30;2.78;;;;;;;;;;5049029;28;20058;-78
2023/10/31 00:34:08;;;;;;;4.30;2.30;;;;;;;;;;5038932;28;20028;-78
2023/10/31 00:36:33;;;;;;;5.45;2.53;;;;;;;;;;5036880;28;20055;-77
2023/10/31 00:38:58;;;;;;;4.68;2.53;;;;;;;;;;5048899;28;20044;-78
2023/10/31 00:41:23;;;;;;;7.03;2.70;;;;;;;;;;5050423;28;20470;-78
2023/10/31 00:43:49;;;;;;;7.25;3.80;;;;;;;;;;5052102;28;20483;-76
2023/10/31 00:46:14;;;;;;;6.32;3.80;;;;;;;;;;5027708;28;20025;-78
2023/10/31 00:48:39;;;;;;;6.22;3.65;;;;;;;;;;5031151;28;20536;-77
2023/10/31 00:51:06;;;;;;;6.60;3.80;;;;;;;;;;5046716;28;20030;-79
2023/10/31 00:53:31;;;;;;;6.18;3.45;;;;;;;;;;5030873;28;20028;-77
2023/10/31 00:55:57;;;;;;;5.80;2.42;;;;;;;;;;5053902;28;20033;-78
2023/10/31 00:58:22;;;;;;;6.85;3.17;;;;;;;;;;5046750;28;20033;-77
2023/10/31 01:00:48;;;;;;;6.03;2.58;;;;;;;;;;5046998;28;20025;-78
2023/10/31 01:03:13;;;;;;;4.47;2.40;;;;;;;;;;5064037;28;20049;-78
2023/10/31 01:05:38;;;;;;;6.95;3.15;;;;;;;;;;5061348;28;20635;-77
2023/10/31 01:08:04;;;;;;;8.63;3.38;;;;;;;;;;5040432;28;20036;-79
2023/10/31 01:10:29;;;;;;;5.63;3.00;;;;;;;;;;5035664;28;20037;-77
2023/10/31 01:12:54;;;;;;;5.45;3.05;;;;;;;;;;5044700;28;20032;-78
2023/10/31 01:15:20;;;;;;;6.00;2.80;;;;;;;;;;5048670;28;20020;-78
2023/10/31 01:17:45;;;;;;;4.88;2.72;;;;;;;;;;5050722;28;20110;-78
2023/10/31 01:20:11;;;;;;;5.57;3.20;;;;;;;;;;5033137;28;20029;-79
2023/10/31 01:22:37;;;;;;;5.40;3.10;;;;;;;;;;5055549;28;20017;-78
2023/10/31 01:25:02;;;;;;;5.13;2.80;;;;;;;;;;5037788;28;20029;-79
2023/10/31 01:27:28;;;;;;;6.28;3.13;;;;;;;;;;5038239;28;20074;-78
2023/10/31 01:29:53;;;;;;;5.50;2.85;;;;;;;;;;5056784;28;20033;-77
2023/10/31 01:32:18;;;;;;;5.90;2.92;;;;;;;;;;5038167;28;20476;-79
2023/10/31 01:34:44;;;;;;;5.03;2.75;;;;;;;;;;5054178;28;20025;-78
2023/10/31 01:37:09;;;;;;;6.63;3.00;;;;;;;;;;5054279;28;20599;-79
2023/10/31 01:39:36;;;;;;;6.22;3.05;;;;;;;;;;5035607;28;20459;-78
2023/10/31 01:42:01;;;;;;;5.40;3.05;;;;;;;;;;5036969;28;20033;-78
2023/10/31 01:44:26;;;;;;;6.53;2.60;;;;;;;;;;5034644;28;20074;-78
2023/10/31 01:46:51;;;;;;;5.00;2.80;;;;;;;;;;5037259;28;20110;-78
2023/10/31 01:49:17;;;;;;;6.55;3.70;;;;;;;;;;5037222;28;20020;-78
2023/10/31 01:51:42;;;;;;;8.73;3.97;;;;;;;;;;5055170;28;20064;-78
2023/10/31 01:54:09;;;;;;;8.52;3.60;;;;;;;;;;5055318;28;20040;-79
2023/10/31 01:56:34;;;;;;;7.35;4.65;;;;;;;;;;5055267;28;20029;-77
2023/10/31 01:59:00;;;;;;;5.45;3.78;;;;;;;;;;5037793;28;20025;-78
2023/10/31 02:01:25;;;;;;;10.38;6.82;;;;;;;;;;5039148;28;20382;-78
2023/10/31 02:03:50;;;;;;;9.25;6.85;;;;;;;;;;5054185;28;20027;-78
2023/10/31 02:06:16;;;;;;;9.63;7.28;;;;;;;;;;5037219;28;20095;-78
2023/10/31 02:08:41;;;;;;;8.70;6.18;;;;;;;;;;5037137;28;20021;-78
2023/10/31 02:11:09;;;;;;;9.73;7.13;;;;;;;;;;5036786;28;20079;-78
2023/10/31 02:13:35;;;;;;;10.63;7.60;;;;;;;;;;5041985;28;20033;-78
2023/10/31 02:16:00;;;;;;;9.88;7.53;;;;;;;;;;5020509;28;20025;-78
2023/10/31 02:18:26;;;;;;;9.60;7.50;;;;;;;;;;5053311;28;20159;-78
2023/10/31 02:20:51;;;;;;;9.52;7.35;;;;;;;;;;5053616;28;20060;-78
2023/10/31 02:23:16;;;;;;;12.80;9.10;;;;;;;;;;5030628;28;20026;-76
2023/10/31 02:25:41;;;;;;;10.52;9.40;;;;;;;;;;5054101;28;20033;-78
2023/10/31 02:28:07;;;;;;;12.52;9.90;;;;;;;;;;5036223;28;20052;-78
2023/10/31 02:30:34;;;;;;;11.38;9.05;;;;;;;;;;5053895;28;20096;-78
2023/10/31 02:33:00;;;;;;;17.13;11.60;;;;;;;;;;5034710;28;20029;-78
2023/10/31 02:35:25;;;;;;;12.40;10.20;;;;;;;;;;5036224;28;20025;-78
2023/10/31 02:37:51;;;;;;;13.65;10.32;;;;;;;;;;5036241;28;20112;-78
2023/10/31 02:40:16;;;;;;;13.77;10.80;;;;;;;;;;5053766;28;20570;-78
2023/10/31 02:42:41;;;;;;;14.82;12.60;;;;;;;;;;5036270;28;20076;-78
2023/10/31 02:45:07;;;;;;;15.15;11.93;;;;;;;;;;5053582;28;20477;-78
2023/10/31 02:47:32;;;;;;;18.45;14.48;;;;;;;;;;5036286;28;20416;-78
2023/10/31 02:49:58;;;;;;;15.77;13.60;;;;;;;;;;5035642;28;20063;-78
2023/10/31 02:52:23;;;;;;;15.27;11.73;;;;;;;;;;5036287;28;20037;-78
2023/10/31 02:54:48;;;;;;;16.00;12.93;;;;;;;;;;5036025;28;20021;-76
2023/10/31 02:57:15;;;;;;;17.23;12.02;;;;;;;;;;5035824;28;20029;-78
2023/10/31 02:59:40;;;;;;;18.67;13.68;;;;;;;;;;5034684;28;20108;-78
2023/10/31 03:02:05;;;;;;;17.23;12.55;;;;;;;;;;5053570;28;20532;-78
2023/10/31 03:04:31;;;;;;;17.77;12.55;;;;;;;;;;5054128;28;20100;-77
2023/10/31 03:06:57;;;;;;;15.15;12.45;;;;;;;;;;5053821;28;20025;-78
2023/10/31 03:09:22;;;;;;;18.08;11.30;;;;;;;;;;5035736;28;20084;-78
2023/10/31 03:11:47;;;;;;;13.85;11.25;;;;;;;;;;5052840;28;20396;-78
2023/10/31 03:14:13;;;;;;;15.63;11.18;;;;;;;;;;5036340;28;20711;-77
2023/10/31 03:16:38;;;;;;;15.60;11.38;;;;;;;;;;5054451;28;20521;-77
2023/10/31 03:19:04;;;;;;;16.08;11.85;;;;;;;;;;5053238;28;20041;-76
2023/10/31 03:21:29;;;;;;;15.50;12.05;;;;;;;;;;5034522;28;20036;-77
2023/10/31 03:23:55;;;;;;;13.02;8.70;;;;;;;;;;5053446;28;20029;-78
2023/10/31 03:26:21;;;;;;;14.05;11.32;;;;;;;;;;5035239;28;20047;-78
2023/10/31 03:28:46;;;;;;;16.40;11.73;;;;;;;;;;5037066;28;20108;-78
2023/10/31 03:31:12;;;;;;;14.20;10.95;;;;;;;;;;5034797;28;20028;-78
2023/10/31 03:33:37;;;;;;;13.95;11.20;;;;;;;;;;5035501;28;20063;-78
2023/10/31 03:36:03;;;;;;;14.30;9.27;;;;;;;;;;5032942;28;20114;-78
2023/10/31 03:38:28;;;;;;;15.07;10.23;;;;;;;;;;5034431;28;20032;-78
2023/10/31 03:40:53;;;;;;;13.07;8.95;;;;;;;;;;5034713;28;20087;-78
2023/10/31 03:43:19;;;;;;;10.10;7.68;;;;;;;;;;5051141;28;20493;-78
2023/10/31 03:45:45;;;;;;;11.23;8.77;;;;;;;;;;5052431;28;20052;-78
2023/10/31 03:48:11;;;;;;;12.18;9.43;;;;;;;;;;5034864;28;20017;-78
2023/10/31 03:50:37;;;;;;;10.80;8.65;;;;;;;;;;5032840;28;20033;-78
2023/10/31 03:53:02;;;;;;;11.23;8.82;;;;;;;;;;5034970;28;20032;-78
2023/10/31 03:55:30;;;;;;;13.00;9.88;;;;;;;;;;5033738;28;20025;-78
2023/10/31 03:57:55;;;;;;;12.98;10.55;;;;;;;;;;5034114;28;20064;-78
2023/10/31 04:00:20;;;;;;;13.45;10.63;;;;;;;;;;5034681;28;20052;-78
2023/10/31 04:02:45;;;;;;;11.35;9.55;;;;;;;;;;5033711;28;20025;-77
2023/10/31 04:05:10;;;;;;;13.65;10.80;;;;;;;;;;5028743;28;20111;-78
2023/10/31 04:07:36;;;;;;;10.77;8.73;;;;;;;;;;5033771;28;20086;-77
2023/10/31 04:10:01;;;;;;;11.15;9.70;;;;;;;;;;5052146;28;20025;-78
2023/10/31 04:12:26;;;;;;;11.20;8.88;;;;;;;;;;5051133;28;20497;-78
2023/10/31 04:14:52;;;;;;;14.23;10.15;;;;;;;;;;5049755;28;20425;-78
2023/10/31 04:17:17;;;;;;;13.80;9.27;;;;;;;;;;5034781;28;20032;-78
2023/10/31 04:19:42;;;;;;;10.50;8.90;;;;;;;;;;5034538;28;20086;-77
2023/10/31 04:22:07;;;;;;;11.27;8.48;;;;;;;;;;5052144;28;20044;-78
2023/10/31 04:24:32;;;;;;;9.55;6.72;;;;;;;;;;5052738;28;20029;-78
2023/10/31 04:26:58;;;;;;;11.50;8.30;;;;;;;;;;5052720;28;20032;-78
2023/10/31 04:29:23;;;;;;;9.30;7.80;;;;;;;;;;5052113;28;20025;-78
2023/10/31 04:31:48;;;;;;;13.30;7.85;;;;;;;;;;5051999;28;20103;-76
2023/10/31 04:34:13;;;;;;;10.10;7.85;;;;;;;;;;5032728;28;20116;-78
2023/10/31 04:36:39;;;;;;;10.13;7.97;;;;;;;;;;5052073;28;20025;-77
2023/10/31 04:39:05;;;;;;;11.73;8.00;;;;;;;;;;5034051;28;20120;-78
2023/10/31 04:41:30;;;;;;;11.43;7.88;;;;;;;;;;5034210;28;20028;-78
2023/10/31 04:43:55;;;;;;;7.95;6.38;;;;;;;;;;5051750;28;20044;-77
2023/10/31 04:46:21;;;;;;;10.40;7.95;;;;;;;;;;5051203;28;20021;-77
2023/10/31 04:48:46;;;;;;;10.30;8.20;;;;;;;;;;5051607;28;20111;-79
2023/10/31 04:51:11;;;;;;;9.13;7.78;;;;;;;;;;5052045;28;20096;-78
2023/10/31 04:53:36;;;;;;;10.93;7.20;;;;;;;;;;5052144;28;20083;-78
2023/10/31 04:56:02;;;;;;;9.10;7.10;;;;;;;;;;5051872;28;20052;-79
2023/10/31 04:58:27;;;;;;;8.75;7.38;;;;;;;;;;5052999;28;20052;-77
2023/10/31 05:00:52;;;;;;;6.93;5.35;;;;;;;;;;5052482;28;20029;-77
2023/10/31 05:03:17;;;;;;;8.38;5.95;;;;;;;;;;5052864;28;20532;-79
2023/10/31 05:05:43;;;;;;;8.45;5.82;;;;;;;;;;5052724;28;20389;-78
2023/10/31 05:08:08;;;;;;;9.45;6.75;;;;;;;;;;5034430;28;20029;-79
2023/10/31 05:10:34;;;;;;;7.78;6.13;;;;;;;;;;5052505;28;20037;-78
2023/10/31 05:13:00;;;;;;;9.90;7.30;;;;;;;;;;5034687;28;20041;-78
2023/10/31 05:15:25;;;;;;;7.65;5.20;;;;;;;;;;5052260;28;20033;-78
2023/10/31 05:17:50;;;;;;;8.05;6.22;;;;;;;;;;5034129;28;20035;-76
2023/10/31 05:20:16;;;;;;;5.85;5.25;;;;;;;;;;5034861;28;20116;-78
2023/10/31 05:22:41;;;;;;;8.10;5.60;;;;;;;;;;5052116;28;20108;-77
2023/10/31 05:25:06;;;;;;;6.15;4.75;;;;;;;;;;5052022;28;20025;-78
2023/10/31 05:27:31;;;;;;;6.15;4.57;;;;;;;;;;5052209;28;20033;-78
2023/10/31 05:29:57;;;;;;;7.97;4.95;;;;;;;;;;5051900;28;20037;-77
2023/10/31 05:32:22;;;;;;;6.35;4.30;;;;;;;;;;5052464;28;20029;-78
2023/10/31 05:34:47;;;;;;;6.82;4.10;;;;;;;;;;5052390;28;20029;-78
2023/10/31 05:37:12;;;;;;;6.80;4.43;;;;;;;;;;5051961;28;20029;-79
2023/10/31 05:39:38;;;;;;;6.32;4.13;;;;;;;;;;5053761;28;20396;-79
2023/10/31 05:42:03;;;;;;;5.72;3.70;;;;;;;;;;5055520;28;20405;-77
2023/10/31 05:44:28;;;;;;;6.35;3.92;;;;;;;;;;5052414;28;20037;-78
2023/10/31 05:46:54;;;;;;;6.28;3.60;;;;;;;;;;5055460;28;20029;-78
2023/10/31 05:49:19;;;;;;;4.93;3.33;;;;;;;;;;5055287;28;20041;-79
2023/10/31 05:51:44;;;;;;;5.55;3.15;;;;;;;;;;5055465;28;20033;-79
2023/10/31 05:54:09;;;;;;;5.25;3.00;;;;;;;;;;5055761;28;20112;-78
2023/10/31 05:56:35;;;;;;;4.63;2.30;;;;;;;;;;5055555;28;20029;-79
2023/10/31 05:59:00;;;;;;;4.05;2.47;;;;;;;;;;5037220;28;20059;-79
2023/10/31 06:01:25;;;;;;;5.57;2.58;;;;;;;;;;5055426;28;20542;-76
2023/10/31 06:03:51;;;;;;;3.65;2.28;;;;;;;;;;5055269;28;20088;-79
2023/10/31 06:06:16;;;;;;;3.45;1.70;;;;;;;;;;5037268;28;20029;-78
2023/10/31 06:08:41;;;;;;;4.43;2.08;;;;;;;;;;5055118;28;20100;-78
2023/10/31 06:11:06;;;;;;;3.45;1.65;;;;;;;;;;5055240;28;20033;-78
2023/10/31 06:13:33;;;;;;;3.63;1.35;;;;;;;;;;5055451;28;20392;-78
2023/10/31 06:15:59;;;;;;;4.43;1.73;;;;;;;;;;5055649;28;20549;-78
2023/10/31 06:18:24;;;;;;;3.10;1.48;;;;;;;;;;5037322;28;20037;-78
2023/10/31 06:20:50;;;;;;;3.30;1.45;;;;;;;;;;5055265;28;20400;-78
2023/10/31 06:23:15;;;;;;;3.50;1.50;;;;;;;;;;5037437;28;20017;-78
2023/10/31 06:25:40;;;;;;;3.33;1.50;;;;;;;;;;5054074;28;20025;-78
2023/10/31 06:28:05;;;;;;;2.53;1.20;;;;;;;;;;5055008;28;20037;-78
2023/10/31 06:30:30;;;;;;;1.85;0.90;;;;;;;;;;5055448;28;20040;-78
2023/10/31 06:32:56;;;;;;;1.83;0.77;;;;;;;;;;5034443;28;20409;-77
2023/10/31 06:35:24;;;;;;;1.92;1.02;;;;;;;;;;5054721;28;20025;-78
2023/10/31 06:37:49;;;;;;;2.63;1.00;;;;;;;;;;5051479;28;20036;-78
2023/10/31 06:40:14;;;;;;;2.97;1.05;;;;;;;;;;5053647;28;20396;-79
2023/10/31 06:42:40;;;;;;;4.43;0.90;;;;;;;;;;5054636;28;20025;-77
2023/10/31 06:45:05;;;;;;;2.30;0.77;;;;;;;;;;5041557;28;20493;-79
2023/10/31 06:47:30;;;;;;;1.00;0.57;;;;;;;;;;5054763;28;20021;-79
2023/10/31 06:49:55;;;;;;;1.52;0.70;;;;;;;;;;5054499;28;20057;-79
2023/10/31 06:52:21;;;;;;;1.30;0.60;;;;;;;;;;5055295;28;20169;-78
2023/10/31 06:54:46;;;;;;;1.38;0.57;;;;;;;;;;5056743;28;20150;-78
2023/10/31 06:57:11;;;;;;;1.20;0.60;;;;;;;;;;5042871;28;20024;-78
2023/10/31 06:59:36;;;;;;;1.67;0.60;;;;;;;;;;5054553;28;20033;-78
2023/10/31 07:02:02;;;;;;;1.30;0.60;;;;;;;;;;5052923;28;20036;-78
2023/10/31 07:04:27;;;;;;;0.68;0.40;;;;;;;;;;5056395;28;20059;-78
2023/10/31 07:06:56;;;;;;;1.27;0.57;;;;;;;;;;5040581;28;20035;-78
2023/10/31 07:09:22;;;;;;;1.75;0.63;;;;;;;;;;5055489;28;20032;-77
2023/10/31 07:11:47;;;;;;;2.75;0.47;;;;;;;;;;5041851;28;20035;-77
2023/10/31 07:14:13;;;;;;;2.50;0.40;;;;;;;;;;5051338;28;20063;-77
2023/10/31 07:16:38;;;;;;;0.30;0.30;;;;;;;;;;5051071;28;20501;-77
2023/10/31 07:19:03;;;;;;;0.60;0.38;;;;;;;;;;5033754;28;20045;-77
2023/10/31 07:21:28;;;;;;;0.68;0.43;;;;;;;;;;5051838;28;20029;-78
2023/10/31 07:23:53;;;;;;;0.85;0.50;;;;;;;;;;5033013;28;20103;-77
2023/10/31 07:26:19;;;;;;;1.38;0.40;;;;;;;;;;5051645;28;20059;-77
2023/10/31 07:28:44;;;;;;;0.98;0.50;;;;;;;;;;5051762;28;20064;-77
2023/10/31 07:31:09;;;;;;;2.38;0.32;;;;;;;;;;5033444;28;20032;-78
2023/10/31 07:33:34;;;;;;;0.77;0.40;;;;;;;;;;5051583;28;20036;-78
2023/10/31 07:36:00;;;;;;;0.93;0.40;;;;;;;;;;5049969;28;20035;-77
2023/10/31 07:38:25;;;;;;;1.90;0.30;;;;;;;;;;5051768;28;20059;-79
2023/10/31 07:40:50;;;;;;;3.60;0.40;;;;;;;;;;5051771;28;20039;-78
2023/10/31 07:43:16;;;;;;;3.00;0.50;;;;;;;;;;5048939;28;20469;-78
2023/10/31 07:45:41;;;;;;;0.75;0.40;;;;;;;;;;5050007;28;20028;-78
2023/10/31 07:48:07;;;;;;;1.73;0.60;;;;;;;;;;5052069;28;20025;-79
2023/10/31 07:50:32;;;;;;;1.45;0.60;;;;;;;;;;5051562;28;20056;-78
2023/10/31 07:52:57;;;;;;;1.40;0.60;;;;;;;;;;5051274;28;20482;-78
2023/10/31 07:55:22;;;;;;;1.00;0.40;;;;;;;;;;5050163;28;20028;-77
2023/10/31 07:57:48;;;;;;;1.30;0.60;;;;;;;;;;5052047;28;20513;-78
2023/10/31 08:00:13;;;;;;;1.38;0.43;;;;;;;;;;5029655;28;20033;-78
2023/10/31 08:02:38;;;;;;;0.85;0.45;;;;;;;;;;5049115;28;20036;-78
2023/10/31 08:05:04;;;;;;;1.52;0.40;;;;;;;;;;5052940;28;20041;-78
2023/10/31 08:07:30;;;;;;;0.88;0.50;;;;;;;;;;5055059;28;20032;-77
2023/10/31 08:09:58;;;;;;;2.70;0.40;;;;;;;;;;5049974;28;20064;-78
2023/10/31 08:12:23;;;;;;;1.40;0.38;;;;;;;;;;5055079;28;20079;-78
2023/10/31 08:14:48;;;;;;;1.05;0.43;;;;;;;;;;5033892;28;20041;-79
2023/10/31 08:17:14;;;;;;;1.10;0.40;;;;;;;;;;5027335;28;20079;-78
2023/10/31 08:19:39;;;;;;;1.15;0.50;;;;;;;;;;5051163;28;20032;-78
2023/10/31 08:22:04;;;;;;;0.93;0.60;;;;;;;;;;5051226;28;20025;-78
2023/10/31 08:24:29;;;;;;;1.35;0.60;;;;;;;;;;5050583;28;20040;-78
2023/10/31 08:26:55;;;;;;;1.50;0.40;;;;;;;;;;5050830;28;20040;-78
2023/10/31 08:29:20;;;;;;;1.45;0.47;;;;;;;;;;5051183;28;20036;-78
2023/10/31 08:31:45;;;;;;;1.80;0.63;;;;;;;;;;5051011;28;20025;-78
2023/10/31 08:34:10;;;;;;;2.28;0.50;;;;;;;;;;5050890;28;20505;-78
2023/10/31 08:36:35;;;;;;;0.90;0.50;;;;;;;;;;5050689;28;20485;-78
2023/10/31 08:39:01;;;;;;;1.00;0.32;;;;;;;;;;5050926;28;20056;-78
2023/10/31 08:41:26;;;;;;;0.40;0.20;;;;;;;;;;5050962;28;20139;-78
2023/10/31 08:43:51;;;;;;;1.77;0.28;;;;;;;;;;5051215;28;20056;-78
2023/10/31 08:46:17;;;;;;;1.02;0.30;;;;;;;;;;5051468;28;20087;-79
2023/10/31 08:48:43;;;;;;;1.52;0.20;;;;;;;;;;5051817;28;20037;-79
2023/10/31 08:51:08;;;;;;;2.63;0.50;;;;;;;;;;5051527;28;20039;-78
2023/10/31 08:53:33;;;;;;;1.73;0.40;;;;;;;;;;5052678;28;20029;-78
2023/10/31 08:55:58;;;;;;;0.55;0.25;;;;;;;;;;5050711;28;20653;-79
2023/10/31 08:58:24;;;;;;;0.88;0.30;;;;;;;;;;5052453;28;20037;-79
2023/10/31 09:00:49;;;;;;;0.55;0.20;;;;;;;;;;5051703;28;20052;-78
2023/10/31 09:03:14;;;;;;;0.73;0.30;;;;;;;;;;5051569;28;20086;-78
2023/10/31 09:05:40;;;;;;;0.43;0.30;;;;;;;;;;5017229;28;20056;-78
2023/10/31 09:08:05;;;;;;;1.48;0.40;;;;;;;;;;5051414;28;20433;-79
2023/10/31 09:10:30;;;;;;;2.22;0.47;;;;;;;;;;5051137;28;20044;-77
2023/10/31 09:12:55;;;;;;;0.60;0.30;;;;;;;;;;5049838;28;20033;-78
2023/10/31 09:15:21;;;;;;;1.35;0.40;;;;;;;;;;5049740;28;20091;-77
2023/10/31 09:17:46;;;;;;;4.00;0.47;;;;;;;;;;5052094;28;20071;-77
2023/10/31 09:20:12;;;;;;;0.98;0.40;;;;;;;;;;5052756;28;20043;-77
2023/10/31 09:22:37;;;;;;;2.00;0.32;;;;;;;;;;5051872;28;20036;-77
2023/10/31 09:25:03;;;;;;;2.35;0.60;;;;;;;;;;5050621;28;20067;-77
2023/10/31 09:27:28;;;;;;;0.43;0.40;;;;;;;;;;5030756;28;20033;-77
2023/10/31 09:29:53;;;;;;;1.73;0.40;;;;;;;;;;5033184;28;20029;-78
2023/10/31 09:32:18;;;;;;;2.60;1.00;;;;;;;;;;5032371;28;20037;-77
2023/10/31 09:34:44;;;;;;;1.40;0.40;;;;;;;;;;5054395;28;20032;-78
2023/10/31 09:37:09;;;;;;;1.27;0.30;;;;;;;;;;5028811;28;20040;-77
2023/10/31 09:39:34;;;;;;;1.60;0.57;;;;;;;;;;5055410;28;20044;-77
2023/10/31 09:41:59;;;;;;;0.35;0.20;;;;;;;;;;5037463;28;20056;-77
2023/10/31 09:44:25;;;;;;;2.03;0.43;;;;;;;;;;5054520;28;20028;-78
2023/10/31 09:46:51;;;;;;;0.80;0.30;;;;;;;;;;5051711;28;20138;-77
2023/10/31 09:49:17;;;;;;;1.52;0.47;;;;;;;;;;5037808;28;21686;-78
2023/10/31 09:51:42;;;;;;;1.48;0.38;;;;;;;;;;5060637;28;20029;-78
2023/10/31 09:54:07;;;;;;;1.33;0.30;;;;;;;;;;5035284;28;20029;-78
2023/10/31 09:56:34;;;;;;;3.25;0.40;;;;;;;;;;5054027;28;20017;-77
2023/10/31 09:59:00;;;;;;;2.35;0.30;;;;;;;;;;5053631;28;20075;-78
2023/10/31 10:01:25;;;;;;;1.17;0.47;;;;;;;;;;5053073;28;20493;-78
2023/10/31 10:03:50;;;;;;;1.88;0.43;;;;;;;;;;5054042;28;20382;-78
2023/10/31 10:06:16;;;;;;;2.75;0.45;;;;;;;;;;5053644;28;20048;-77
2023/10/31 10:08:41;;;;;;;1.35;0.40;;;;;;;;;;5053765;28;20036;-77
2023/10/31 10:11:06;;;;;;;0.30;0.20;;;;;;;;;;5051842;28;20029;-78
2023/10/31 10:13:32;;;;;;;0.17;0.10;;;;;;;;;;5053745;28;20036;-77
2023/10/31 10:15:57;;;;;;;2.50;0.30;;;;;;;;;;5052799;28;20474;-78
2023/10/31 10:18:26;;;;;;;2.28;0.25;;;;;;;;;;5050633;28;20041;-77
2023/10/31 10:20:58;;;;;;;1.85;0.10;;;;;;;;;;5053336;28;20037;-77
2023/10/31 10:23:24;;;;;;;1.58;0.10;;;;;;;;;;5052350;28;20501;-78
2023/10/31 10:25:49;;;;;;;0.10;0.10;;;;;;;;;;5053569;28;20021;-80
2023/10/31 10:28:14;;;;;;;0.73;0.13;;;;;;;;;;5053695;28;20043;-78
2023/10/31 10:30:41;;;;;;;0.88;0.08;;;;;;;;;;5053193;28;20029;-77
2023/10/31 10:33:06;;;;;;;0.22;0.03;;;;;;;;;;5053035;28;20040;-77
2023/10/31 10:35:31;;;;;;;0.32;0.10;;;;;;;;;;5053317;28;20099;-77
2023/10/31 10:37:58;;;;;;;1.30;0.20;;;;;;;;;;5053578;28;20131;-79
2023/10/31 10:40:23;;;;;;;1.25;0.15;;;;;;;;;;5051689;28;20037;-77
2023/10/31 10:42:50;;;;;;;1.27;0.30;;;;;;;;;;5050664;28;20031;-77
2023/10/31 10:45:16;;;;;;;0.40;0.10;;;;;;;;;;5050779;28;20661;-77
2023/10/31 10:47:45;;;;;;;1.85;0.28;;;;;;;;;;5051775;28;20028;-77
2023/10/31 10:50:12;;;;;;;1.38;0.20;;;;;;;;;;5032169;28;20489;-77
2023/10/31 10:52:56;;;;;;;0.38;0.20;;;;;;;;;;5051997;28;20036;-77
2023/10/31 10:55:23;;;;;;;0.22;0.10;;;;;;;;;;5027687;28;20026;-77
2023/10/31 10:58:00;;;;;;;0.17;0.10;;;;;;;;;;5046345;28;20108;-77
2023/10/31 11:00:25;;;;;;;0.55;0.20;;;;;;;;;;5050199;28;20743;-77
2023/10/31 11:02:54;;;;;;;0.38;0.10;;;;;;;;;;5049186;28;20112;-77
2023/10/31 11:05:19;;;;;;;0.47;0.10;;;;;;;;;;5034157;28;20032;-78
2023/10/31 11:07:45;;;;;;;1.73;0.45;;;;;;;;;;5052371;28;20074;-77
2023/10/31 11:10:11;;;;;;;0.75;0.20;;;;;;;;;;5050442;28;20029;-77
2023/10/31 11:12:37;;;;;;;1.15;0.17;;;;;;;;;;5052192;28;20028;-77
2023/10/31 11:15:03;;;;;;;1.90;0.30;;;;;;;;;;5051942;28;20037;-77
2023/10/31 11:17:30;;;;;;;0.10;0.10;;;;;;;;;;5052154;28;20493;-78
2023/10/31 11:19:56;;;;;;;0.57;0.22;;;;;;;;;;5052051;28;20128;-77
2023/10/31 11:22:22;;;;;;;0.38;0.10;;;;;;;;;;5051721;28;20521;-77
2023/10/31 11:24:48;;;;;;;0.32;0.10;;;;;;;;;;5050950;28;20393;-77
2023/10/31 11:27:14;;;;;;;0.08;0.08;;;;;;;;;;5051837;28;20112;-77
2023/10/31 11:29:39;;;;;;;1.55;0.25;;;;;;;;;;5030592;28;20111;-77
2023/10/31 11:32:08;;;;;;;0.47;0.10;;;;;;;;;;5032536;28;20043;-77
2023/10/31 11:34:36;;;;;;;1.50;0.30;;;;;;;;;;5047323;28;20053;-77
2023/10/31 11:37:20;;;;;;;3.75;0.90;;;;;;;;;;5049141;28;20625;-77
2023/10/31 11:40:04;;;;;;;0.60;0.20;;;;;;;;;;5051475;28;20095;-77
2023/10/31 11:42:31;;;;;;;0.73;0.38;;;;;;;;;;5049985;28;20512;-77
2023/10/31 11:44:56;;;;;;;0.22;0.20;;;;;;;;;;5032359;28;20029;-77
2023/10/31 11:47:22;;;;;;;0.50;0.22;;;;;;;;;;5051606;28;20098;-78
2023/10/31 11:49:48;;;;;;;0.30;0.10;;;;;;;;;;5050986;28;20053;-77
2023/10/31 11:52:16;;;;;;;0.17;0.10;;;;;;;;;;5051483;28;20076;-77
2023/10/31 11:54:42;;;;;;;0.40;0.20;;;;;;;;;;5051540;28;20548;-77
2023/10/31 11:57:07;;;;;;;0.93;0.20;;;;;;;;;;5051479;28;20043;-77
2023/10/31 11:59:38;;;;;;;0.85;0.20;;;;;;;;;;5051408;28;20029;-77
2023/10/31 12:02:14;;;;;;;2.53;0.15;;;;;;;;;;5048480;28;20025;-77
2023/10/31 12:04:39;;;;;;;0.95;0.20;;;;;;;;;;5051270;28;20032;-77
2023/10/31 12:07:05;;;;;;;0.47;0.20;;;;;;;;;;5050435;28;20029;-77
2023/10/31 12:09:30;;;;;;;0.75;0.30;;;;;;;;;;5051337;28;20083;-77
2023/10/31 12:11:55;;;;;;;0.50;0.20;;;;;;;;;;5051268;28;20440;-77
2023/10/31 12:14:21;;;;;;;1.27;0.55;;;;;;;;;;5029474;28;20037;-77
2023/10/31 12:16:46;;;;;;;0.82;0.10;;;;;;;;;;5031123;28;20036;-77
2023/10/31 12:19:11;;;;;;;0.40;0.30;;;;;;;;;;5031610;28;20523;-78
2023/10/31 12:21:46;;;;;;;0.30;0.20;;;;;;;;;;5033272;28;20032;-76
2023/10/31 12:24:12;;;;;;;3.25;0.30;;;;;;;;;;5050406;28;20043;-77
2023/10/31 12:26:38;;;;;;;0.65;0.22;;;;;;;;;;5033182;28;20021;-77
2023/10/31 12:29:19;;;;;;;1.30;0.20;;;;;;;;;;5048879;28;20037;-77
2023/10/31 12:31:46;;;;;;;0.40;0.20;;;;;;;;;;5051013;28;20162;-78
2023/10/31 12:34:11;;;;;;;0.40;0.20;;;;;;;;;;5032888;28;20032;-78
2023/10/31 12:36:37;;;;;;;0.82;0.43;;;;;;;;;;5050774;28;20029;-79
2023/10/31 12:39:05;;;;;;;1.20;0.35;;;;;;;;;;5051018;28;20433;-78
2023/10/31 12:41:31;;;;;;;0.30;0.17;;;;;;;;;;5039914;28;20036;-79
2023/10/31 12:43:56;;;;;;;1.77;0.20;;;;;;;;;;5034174;28;20402;-79
2023/10/31 12:46:29;;;;;;;1.38;0.17;;;;;;;;;;5051260;28;20108;-78
2023/10/31 12:48:54;;;;;;;1.08;0.15;;;;;;;;;;5049068;28;20447;-78
2023/10/31 12:51:20;;;;;;;1.05;0.40;;;;;;;;;;5054841;28;20134;-78
2023/10/31 12:53:51;;;;;;;0.52;0.28;;;;;;;;;;5054654;28;20047;-77
2023/10/31 12:56:38;;;;;;;0.38;0.17;;;;;;;;;;5037348;28;20612;-78
2023/10/31 12:59:04;;;;;;;0.98;0.30;;;;;;;;;;5052570;28;20037;-77
2023/10/31 13:01:29;;;;;;;0.70;0.15;;;;;;;;;;5037463;28;20039;-78
2023/10/31 13:03:54;;;;;;;0.73;0.30;;;;;;;;;;5036339;28;20033;-78
2023/10/31 13:06:20;;;;;;;1.02;0.50;;;;;;;;;;5053805;28;20079;-77
2023/10/31 13:08:45;;;;;;;0.80;0.30;;;;;;;;;;5052828;28;20056;-77
2023/10/31 13:11:11;;;;;;;0.65;0.30;;;;;;;;;;5035036;28;20029;-78
2023/10/31 13:13:36;;;;;;;1.50;0.40;;;;;;;;;;5035235;28;20075;-78
2023/10/31 13:16:01;;;;;;;0.77;0.10;;;;;;;;;;5034964;28;20033;-78
2023/10/31 13:18:27;;;;;;;1.42;0.73;;;;;;;;;;5053101;28;20029;-78
2023/10/31 13:20:52;;;;;;;1.33;0.40;;;;;;;;;;5051088;28;20113;-78
2023/10/31 13:23:17;;;;;;;2.05;0.50;;;;;;;;;;5050939;28;20378;-77
2023/10/31 13:25:42;;;;;;;2.45;0.57;;;;;;;;;;5049650;28;20477;-77
2023/10/31 13:28:11;;;;;;;2.88;0.52;;;;;;;;;;5054344;28;20024;-78
2023/10/31 13:30:37;;;;;;;2.08;0.80;;;;;;;;;;5050915;28;20035;-77
2023/10/31 13:33:02;;;;;;;2.92;0.60;;;;;;;;;;5053936;28;20033;-77
2023/10/31 13:35:27;;;;;;;1.58;0.77;;;;;;;;;;5053941;28;20033;-77
2023/10/31 13:37:52;;;;;;;2.17;0.90;;;;;;;;;;5053961;28;20037;-78
2023/10/31 13:40:17;;;;;;;1.33;0.75;;;;;;;;;;5053297;28;20039;-77
2023/10/31 13:42:42;;;;;;;0.85;0.50;;;;;;;;;;5036032;28;20043;-77
2023/10/31 13:45:08;;;;;;;1.50;0.50;;;;;;;;;;5053872;28;20025;-78
2023/10/31 13:47:33;;;;;;;1.60;0.30;;;;;;;;;;5049466;28;20440;-77
2023/10/31 13:49:59;;;;;;;1.90;0.57;;;;;;;;;;5053186;28;20143;-77
2023/10/31 13:52:24;;;;;;;0.82;0.30;;;;;;;;;;5052835;28;20090;-78
2023/10/31 13:54:49;;;;;;;1.98;0.70;;;;;;;;;;5053605;28;20087;-78
2023/10/31 13:57:14;;;;;;;1.65;0.40;;;;;;;;;;5035548;28;20044;-77
2023/10/31 13:59:40;;;;;;;4.20;0.50;;;;;;;;;;5052534;28;20051;-77
2023/10/31 14:02:05;;;;;;;2.40;0.40;;;;;;;;;;5035238;28;20048;-77
2023/10/31 14:04:30;;;;;;;1.05;0.50;;;;;;;;;;5053511;28;20064;-77
2023/10/31 14:06:56;;;;;;;1.77;0.68;;;;;;;;;;5053460;28;20033;-77
2023/10/31 14:09:21;;;;;;;1.65;1.00;;;;;;;;;;5033639;28;20147;-77
2023/10/31 14:11:47;;;;;;;3.67;0.73;;;;;;;;;;5048339;28;20029;-77
2023/10/31 14:14:13;;;;;;;1.83;0.63;;;;;;;;;;5053111;28;20082;-77
2023/10/31 14:16:39;;;;;;;3.10;0.80;;;;;;;;;;5049750;28;20052;-77
2023/10/31 14:19:06;;;;;;;3.83;0.43;;;;;;;;;;5052424;28;20525;-77
2023/10/31 14:21:31;;;;;;;1.35;0.50;;;;;;;;;;5052706;28;20033;-77
2023/10/31 14:23:56;;;;;;;1.52;0.73;;;;;;;;;;5052444;28;20033;-78
2023/10/31 14:26:22;;;;;;;2.60;0.50;;;;;;;;;;5053032;28;20029;-77
2023/10/31 14:28:48;;;;;;;2.55;0.93;;;;;;;;;;5049078;28;20033;-77
2023/10/31 14:31:13;;;;;;;2.60;0.90;;;;;;;;;;5052699;28;20079;-78